Bookmark and Share
Track history (hours):
 

Macuru Arrow

Last reported at 2014-Apr-20 23:28 UTC. Time now 2014-Apr-24 09:04 UTC.
Position S 24°07' W 046°22'.

Length 225 m; draft 10.4 m.

Type: Cargo ship. MMSI: 311032500.

NotesDate/timePositionNaut miles runAvg speedWind from/ knotsBaromVisibWave heightAir tempDewpointWater temp
2014-Apr-20 23:28S 24°07' W 046°22'8 8.2
2014-Apr-20 22:33S 23°60' W 046°20'2 2.2
2014-Apr-20 21:33S 23°58' W 046°18'0 0.0
2014-Apr-20 20:33S 23°58' W 046°18'0 0.0
2014-Apr-20 19:33S 23°58' W 046°18'0 0.0
2014-Apr-20 18:33S 23°58' W 046°18'0 0.0
2014-Apr-20 17:33S 23°58' W 046°18'0 0.0
2014-Apr-20 16:33S 23°58' W 046°18'0 0.0
2014-Apr-20 15:34S 23°58' W 046°18'0 0.0
2014-Apr-20 14:33S 23°58' W 046°18'0 0.0
2014-Apr-20 13:33S 23°58' W 046°18'0 0.0
2014-Apr-20 12:33S 23°58' W 046°18'0 0.0
2014-Apr-20 11:33S 23°58' W 046°18'0 0.0
2014-Apr-20 10:33S 23°58' W 046°18'0 0.0
2014-Apr-20 09:33S 23°58' W 046°18'0 0.0
2014-Apr-20 08:33S 23°58' W 046°18'0 0.0
2014-Apr-20 07:33S 23°58' W 046°18'0 0.0
2014-Apr-20 06:33S 23°58' W 046°18'0 0.0
2014-Apr-20 05:33S 23°58' W 046°18'0 0.0
2014-Apr-20 04:33S 23°58' W 046°18'0 0.0
2014-Apr-20 03:33S 23°58' W 046°18'0 0.0
2014-Apr-20 02:33S 23°58' W 046°18'0 0.0
2014-Apr-20 01:33S 23°58' W 046°18'0 0.0
2014-Apr-20 00:33S 23°58' W 046°18'0 0.0
2014-Apr-19 23:33S 23°58' W 046°18'0 0.0
2014-Apr-19 22:33S 23°58' W 046°18'0 0.0
2014-Apr-19 21:33S 23°58' W 046°18'0 0.0
2014-Apr-19 20:34S 23°58' W 046°18'0 0.0
2014-Apr-19 19:33S 23°58' W 046°18'0 0.0
2014-Apr-19 18:33S 23°58' W 046°18'0 0.0
2014-Apr-19 17:34S 23°58' W 046°18'0 0.0
2014-Apr-19 16:34S 23°58' W 046°18'0 0.0
2014-Apr-19 15:33S 23°58' W 046°18'0 0.0
2014-Apr-19 14:33S 23°58' W 046°18'0 0.0
2014-Apr-19 13:33S 23°58' W 046°18'0 0.0
2014-Apr-19 12:34S 23°58' W 046°18'0 0.0
2014-Apr-19 11:33S 23°58' W 046°18'0 0.0
2014-Apr-19 10:33S 23°58' W 046°18'0 0.0
2014-Apr-19 09:33S 23°58' W 046°18'0 0.0
2014-Apr-19 08:33S 23°58' W 046°18'0 0.0
2014-Apr-19 07:33S 23°58' W 046°18'0 0.0
2014-Apr-19 06:33S 23°58' W 046°18'0 0.0
2014-Apr-19 05:33S 23°58' W 046°18'0 0.0
2014-Apr-19 04:33S 23°58' W 046°18'0 0.0
2014-Apr-19 03:33S 23°58' W 046°18'0 0.3
2014-Apr-19 02:33S 23°58' W 046°18'7 6.5
2014-Apr-19 01:33S 24°04' W 046°22'8 7.8
2014-Apr-19 00:30S 24°12' W 046°19'0 0.4
2014-Apr-18 23:30S 24°12' W 046°19'0 0.0
2014-Apr-18 22:27S 24°12' W 046°19'0 0.0
2014-Apr-18 21:18S 24°12' W 046°19'0 0.0
2014-Apr-18 20:30S 24°12' W 046°19'0 0.0
2014-Apr-18 19:30S 24°12' W 046°19'0 0.0
2014-Apr-18 18:30S 24°12' W 046°19'0 0.0
2014-Apr-18 17:18S 24°12' W 046°19'0 0.0
2014-Apr-18 16:33S 24°12' W 046°19'0 0.0
2014-Apr-18 15:30S 24°12' W 046°19'0 0.0
2014-Apr-18 14:33S 24°12' W 046°19'0 0.0
2014-Apr-18 13:30S 24°12' W 046°19'0 0.0
2014-Apr-18 12:30S 24°12' W 046°19'0 0.0
2014-Apr-18 11:32S 24°12' W 046°19'0 0.0
2014-Apr-18 10:34S 24°12' W 046°19'0 0.0
2014-Apr-18 09:34S 24°12' W 046°19'0 0.0
2014-Apr-18 08:33S 24°12' W 046°19'0 0.0
2014-Apr-18 07:33S 24°12' W 046°19'0 0.0
2014-Apr-18 06:33S 24°12' W 046°19'0 0.0
2014-Apr-18 05:33S 24°12' W 046°19'0 0.0
2014-Apr-18 04:33S 24°12' W 046°19'0 0.0
2014-Apr-18 03:33S 24°12' W 046°19'0 0.0
2014-Apr-18 02:33S 24°12' W 046°19'0 0.0
2014-Apr-18 01:33S 24°12' W 046°19'3 2.8
2014-Apr-18 00:27S 24°15' W 046°20'  

Dump ship's entire track history

sailing weather and tide predictions

Macuru Arrow — C6YH3 — position and weather